Fidelio — LXFP — position and weather

sailwx.info

Track history (hours):
 
Tides and Currents Weather Stations Pressure Air Temp Water Temp Dewpoint Dewpoint Depression Visibility Wind Speed Wind Dir Waves Ship Positions

Fidelio

Last reported at 2018-Feb-21 07:30 UTC. Time now 2018-May-25 18:44 UTC.
Position N 51°53' E 004°18'.
Warning: this ship's position is months out of date.

Length 104 m; draft 7.5 m.

Type: Ship. MMSI: 253418000.

Date/timePositionNaut miles runAvg speedWind from/ knotsBaromVisibWave heightAir tempDewpointWater temp
2018-Feb-21 07:30N 51°53' E 004°18'0 0.0
2018-Feb-21 06:55N 51°53' E 004°18'0 0.0
2018-Feb-21 06:25N 51°53' E 004°18'0 0.0
2018-Feb-21 05:55N 51°53' E 004°18'0 0.0
2018-Feb-21 04:52N 51°53' E 004°18'0 0.0
2018-Feb-21 04:28N 51°53' E 004°18'0 0.0
2018-Feb-21 03:58N 51°53' E 004°18'0 0.0
2018-Feb-21 03:28N 51°53' E 004°18'0 0.0
2018-Feb-21 02:58N 51°53' E 004°18'0 0.2
2018-Feb-21 02:30N 51°53' E 004°18'0 0.7
2018-Feb-21 01:59N 51°53' E 004°18'0 0.0
2018-Feb-21 01:26N 51°53' E 004°18'0 0.0
2018-Feb-21 00:44N 51°53' E 004°18'0 0.0
2018-Feb-21 00:29N 51°53' E 004°18'0 0.0
2018-Feb-20 23:59N 51°53' E 004°18'0 0.0
2018-Feb-20 23:29N 51°53' E 004°18'0 0.0
2018-Feb-20 22:53N 51°53' E 004°18'0 0.0
2018-Feb-20 22:29N 51°53' E 004°18'0 0.0
2018-Feb-20 21:35N 51°53' E 004°18'0 0.0
2018-Feb-20 21:20N 51°53' E 004°18'0 0.0
2018-Feb-20 20:53N 51°53' E 004°18'0 0.0
2018-Feb-20 20:23N 51°53' E 004°18'0 0.0
2018-Feb-20 19:59N 51°53' E 004°18'0 0.0
2018-Feb-20 19:05N 51°53' E 004°18'0 0.0
2018-Feb-20 18:50N 51°53' E 004°18'0 0.0
2018-Feb-20 18:17N 51°53' E 004°18'0 0.0
2018-Feb-20 17:59N 51°53' E 004°18'0 0.0
2018-Feb-20 17:29N 51°53' E 004°18'0 0.0
2018-Feb-20 16:59N 51°53' E 004°18'0 0.0
2018-Feb-20 16:29N 51°53' E 004°18'0 0.0
2018-Feb-20 15:53N 51°53' E 004°18'0 0.0
2018-Feb-20 15:30N 51°53' E 004°18'0 0.9
2018-Feb-20 15:00N 51°53' E 004°18'2 3.8
2018-Feb-20 14:30N 51°54' E 004°16'510.9
2018-Feb-20 14:00N 51°58' E 004°09'611.7
2018-Feb-20 13:30N 51°60' E 004°00'612.7
2018-Feb-20 13:00N 52°01' E 003°50'4 7.5
2018-Feb-20 12:30N 52°04' E 003°47'611.9
2018-Feb-20 12:00N 52°10' E 003°46'612.6
2018-Feb-20 11:30N 52°17' E 003°46'712.9
2018-Feb-20 10:59N 52°23' E 003°49'612.9
2018-Feb-20 10:30N 52°29' E 003°51'713.0
2018-Feb-20 10:00N 52°36' E 003°53'1013.3
2018-Feb-20 09:16N 52°45' E 003°56'16912.1
2018-Feb-19 19:13N 54°01' E 008°10'411.3
2018-Feb-19 18:53N 54°00' E 008°17'616.3
2018-Feb-19 18:30N 53°59' E 008°27'816.3
2018-Feb-19 18:01N 53°56' E 008°40'815.1
2018-Feb-19 17:30N 53°50' E 008°49'714.2
2018-Feb-19 17:00N 53°51' E 009°01'510.7
2018-Feb-19 16:30N 53°54' E 009°09'0 0.0
2018-Feb-19 16:01N 53°54' E 009°09'2 3.0
2018-Feb-19 15:30N 53°55' E 009°11'4 8.7
2018-Feb-19 15:00N 53°58' E 009°15'4 8.0
2018-Feb-19 14:30N 54°02' E 009°18'1 2.9
2018-Feb-19 14:00N 54°03' E 009°18'4 7.0
2018-Feb-19 13:30N 54°06' E 009°20'3 6.6
2018-Feb-19 13:01N 54°09' E 009°22'4 7.7
2018-Feb-19 12:31N 54°11' E 009°28'4 7.0
2018-Feb-19 12:01N 54°12' E 009°34'3 6.9
2018-Feb-19 11:30N 54°15' E 009°37'4 7.1
2018-Feb-19 11:01N 54°18' E 009°41'4 8.4
2018-Feb-19 10:31N 54°21' E 009°46'4 7.8
2018-Feb-19 09:57N 54°21' E 009°53'3 3.8
2018-Feb-19 09:05N 54°21' E 009°59'18 5.0
2018-Feb-19 05:26N 54°32' E 010°24'4 9.5
2018-Feb-19 05:01N 54°33' E 010°31'611.0
2018-Feb-19 04:31N 54°35' E 010°40'510.9
2018-Feb-19 04:01N 54°35' E 010°49'510.8
2018-Feb-19 03:31N 54°36' E 010°58'611.5
2018-Feb-19 03:00N 54°36' E 011°08'611.6
2018-Feb-19 02:31N 54°34' E 011°18'611.3
2018-Feb-19 02:01N 54°32' E 011°27'611.2
2018-Feb-19 01:29N 54°29' E 011°35'510.8
2018-Feb-19 01:00N 54°27' E 011°44'510.8
2018-Feb-19 00:31N 54°26' E 011°53'510.5
2018-Feb-19 00:01N 54°22' E 011°58'13 7.6
2018-Feb-18 22:14N 54°09' E 012°08'0 0.0
2018-Feb-18 21:59N 54°09' E 012°08'0 0.0
2018-Feb-18 21:29N 54°09' E 012°08'0 0.0
2018-Feb-18 20:44N 54°09' E 012°08'0 0.0
2018-Feb-18 20:29N 54°09' E 012°08'0 0.0
2018-Feb-18 19:59N 54°09' E 012°08'0 0.0
2018-Feb-18 18:26N 54°09' E 012°08'0 0.0
2018-Feb-18 17:29N 54°09' E 012°08'0 0.0
2018-Feb-18 15:59N 54°09' E 012°08'0 0.0
2018-Feb-18 15:29N 54°09' E 012°08'0 0.0
2018-Feb-18 14:59N 54°09' E 012°08'0 0.0
2018-Feb-18 13:26N 54°09' E 012°08'0 0.0
2018-Feb-18 12:50N 54°09' E 012°08'0 0.0
2018-Feb-18 12:29N 54°09' E 012°08'0 0.0
2018-Feb-18 10:59N 54°09' E 012°08'0 0.0
2018-Feb-18 10:26N 54°09' E 012°08'0 0.0
2018-Feb-18 09:59N 54°09' E 012°08'0 0.0
2018-Feb-18 08:41N 54°09' E 012°08'0 0.0
2018-Feb-18 08:29N 54°09' E 012°08'0 0.0
2018-Feb-18 07:59N 54°09' E 012°08'0 0.0
2018-Feb-18 06:14N 54°09' E 012°08'0 0.0
2018-Feb-18 05:59N 54°09' E 012°08'0 0.0
2018-Feb-18 05:29N 54°09' E 012°08'0 0.0
2018-Feb-18 03:44N 54°09' E 012°08'0 0.0
2018-Feb-18 03:26N 54°09' E 012°08'0 0.0
2018-Feb-18 01:56N 54°09' E 012°08'0 0.0
2018-Feb-18 01:29N 54°09' E 012°08'0 0.0
2018-Feb-18 00:59N 54°09' E 012°08'0 0.0
2018-Feb-18 00:23N 54°09' E 012°08'0 0.0
2018-Feb-17 22:59N 54°09' E 012°08'0 0.0
2018-Feb-17 22:29N 54°09' E 012°08'0 0.0
2018-Feb-17 21:56N 54°09' E 012°08'0 0.0
2018-Feb-17 20:35N 54°09' E 012°08'0 0.0
2018-Feb-17 20:26N 54°09' E 012°08'0 0.0
2018-Feb-17 18:50N 54°09' E 012°08'0 0.0
2018-Feb-17 18:29N 54°09' E 012°08'0 0.0
2018-Feb-17 17:59N 54°09' E 012°08'0 0.0
2018-Feb-17 17:23N 54°09' E 012°08'0 0.0
2018-Feb-17 16:08N 54°09' E 012°08'0 0.0
2018-Feb-17 15:59N 54°09' E 012°08'0 0.0
2018-Feb-17 15:29N 54°09' E 012°08'0 0.0
2018-Feb-17 14:30N 54°09' E 012°08'2 2.3
2018-Feb-17 13:45N 54°11' E 012°06'2 8.5
2018-Feb-17 13:30N 54°12' E 012°04'4 8.6
2018-Feb-17 13:00N 54°16' E 012°01'611.6
2018-Feb-17 12:31N 54°22' E 011°57'510.8
2018-Feb-17 12:00N 54°26' E 012°03'6912.8
2018-Feb-17 06:36N 55°01' E 013°47'1313.0
2018-Feb-17 05:38N 55°06' E 014°07'413.6
2018-Feb-17 05:21N 55°09' E 014°11'513.7
2018-Feb-17 05:00N 55°12' E 014°16'713.8
2018-Feb-17 04:30N 55°18' E 014°24'713.7
2018-Feb-17 04:00N 55°23' E 014°32'813.1
2018-Feb-17 03:25N 55°27' E 014°43'513.2
2018-Feb-17 03:00N 55°28' E 014°52'713.1
2018-Feb-17 02:30N 55°30' E 015°04'613.0
2018-Feb-17 02:00N 55°31' E 015°15'612.8
2018-Feb-17 01:30N 55°32' E 015°26'612.7
2018-Feb-17 01:00N 55°33' E 015°37'612.9
2018-Feb-17 00:30N 55°35' E 015°48'612.8
2018-Feb-17 00:00N 55°36' E 015°59'613.0
2018-Feb-16 23:30N 55°37' E 016°11'713.2
2018-Feb-16 23:00N 55°38' E 016°22'712.9
2018-Feb-16 22:30N 55°40' E 016°33'  
2018-Feb-14 14:50N 55°30' E 016°19'413.2
2018-Feb-14 14:30N 55°30' E 016°11'612.9
2018-Feb-14 14:00N 55°30' E 016°00'612.7
2018-Feb-14 13:30N 55°29' E 015°49'612.8
2018-Feb-14 13:00N 55°29' E 015°38'612.8
2018-Feb-14 12:30N 55°28' E 015°26'612.8
2018-Feb-14 12:00N 55°28' E 015°15'612.8
2018-Feb-14 11:30N 55°27' E 015°04'612.8
2018-Feb-14 11:00N 55°27' E 014°53'712.8
2018-Feb-14 10:30N 55°25' E 014°42'713.0
2018-Feb-14 09:59N 55°20' E 014°33'613.1
2018-Feb-14 09:30N 55°16' E 014°26'713.6
2018-Feb-14 09:00N 55°10' E 014°19'713.6
2018-Feb-14 08:28N 55°04' E 014°11'712.9
2018-Feb-14 07:56N 54°60' E 014°02'612.6
2018-Feb-14 07:29N 54°58' E 013°53'1012.9
2018-Feb-14 06:44N 54°55' E 013°37'413.2
2018-Feb-14 06:25N 54°54' E 013°30'612.9
2018-Feb-14 05:56N 54°52' E 013°20'3112.7
2018-Feb-14 03:28N 54°39' E 012°30'612.8
2018-Feb-14 03:00N 54°36' E 012°21'612.3
2018-Feb-14 02:30N 54°31' E 012°16'1111.1
2018-Feb-14 01:32N 54°24' E 012°01'012.8
2018-Feb-14 01:30N 54°24' E 012°00'613.3
2018-Feb-14 01:00N 54°25' E 011°49'712.8
2018-Feb-14 00:29N 54°27' E 011°38'613.0
2018-Feb-14 00:00N 54°30' E 011°29'612.6
2018-Feb-13 23:30N 54°33' E 011°19'612.5
2018-Feb-13 23:00N 54°35' E 011°09'612.6
2018-Feb-13 22:30N 54°35' E 010°58'612.4
2018-Feb-13 22:00N 54°34' E 010°48'612.3
2018-Feb-13 21:30N 54°33' E 010°37'612.6
2018-Feb-13 21:00N 54°31' E 010°27'612.0
2018-Feb-13 20:29N 54°29' E 010°17'17 2.6
2018-Feb-13 14:07N 54°22' E 009°51'1 8.3
2018-Feb-13 14:00N 54°22' E 009°49'4 7.3
2018-Feb-13 13:30N 54°20' E 009°44'3 6.9
2018-Feb-13 13:01N 54°17' E 009°40'3 5.2
2018-Feb-13 12:30N 54°15' E 009°37'2 4.6
2018-Feb-13 12:00N 54°13' E 009°36'4 7.1
2018-Feb-13 11:30N 54°11' E 009°31'4 8.0
2018-Feb-13 11:00N 54°10' E 009°24'4 7.3
2018-Feb-13 10:31N 54°07' E 009°20'4 8.7
2018-Feb-13 10:00N 54°03' E 009°18'4 7.5
2018-Feb-13 09:30N 53°59' E 009°17'4 8.6
2018-Feb-13 09:00N 53°56' E 009°13'3 6.6
2018-Feb-13 08:30N 53°54' E 009°09'0 0.0
2018-Feb-13 08:00N 53°54' E 009°09'2 4.2
2018-Feb-13 07:30N 53°53' E 009°05'510.4
2018-Feb-13 07:00N 53°51' E 008°57'611.8
2018-Feb-13 06:30N 53°50' E 008°47'510.8
2018-Feb-13 06:00N 53°54' E 008°41'611.1
2018-Feb-13 05:29N 53°58' E 008°33'611.7
2018-Feb-13 05:00N 53°59' E 008°24'611.0
2018-Feb-13 04:26N 53°60' E 008°13'10011.8
2018-Feb-12 19:59N 53°35' E 005°30'612.0
2018-Feb-12 19:29N 53°33' E 005°21'611.8
2018-Feb-12 19:00N 53°31' E 005°12'611.8
2018-Feb-12 18:30N 53°29' E 005°03'611.9
2018-Feb-12 18:00N 53°26' E 004°54'612.0
2018-Feb-12 17:28N 53°24' E 004°44'1711.7
2018-Feb-12 16:03N 53°09' E 004°31'111.8
2018-Feb-12 15:58N 53°08' E 004°30'611.9
2018-Feb-12 15:30N 53°04' E 004°25'612.3
2018-Feb-12 15:00N 52°58' E 004°20'612.5
2018-Feb-12 14:29N 52°52' E 004°15'2512.4
2018-Feb-12 12:25N 52°33' E 003°48'712.2
2018-Feb-12 11:50N 52°27' E 003°42'612.1
2018-Feb-12 11:22N 52°22' E 003°38'511.7
2018-Feb-12 10:55N 52°17' E 003°35'3610.2
2018-Feb-12 07:25N 51°43' E 003°15'5 7.3
2018-Feb-12 06:47N 51°39' E 003°19'310.4
2018-Feb-12 06:29N 51°37' E 003°22'510.3
2018-Feb-12 06:00N 51°32' E 003°25'610.7
2018-Feb-12 05:29N 51°28' E 003°31'4 8.3
2018-Feb-12 05:00N 51°26' E 003°37'510.2
2018-Feb-12 04:30N 51°23' E 003°43'713.3
2018-Feb-12 04:00N 51°21' E 003°54'713.1
2018-Feb-12 03:30N 51°26' E 004°01'612.0
2018-Feb-12 03:00N 51°23' E 004°09'5 9.8
2018-Feb-12 02:30N 51°21' E 004°16'4 7.8
2018-Feb-12 02:00N 51°17' E 004°15'0 0.3
2018-Feb-12 01:30N 51°17' E 004°15'  
Track history (hours):
 
Tides and Currents Weather Stations Pressure Air Temp Water Temp Dewpoint Dewpoint Depression Visibility Wind Speed Wind Dir Waves Ship Positions

Fidelio

Last reported at 2018-Feb-21 07:30 UTC. Time now 2018-May-25 18:44 UTC.
Position N 51°53' E 004°18'.
Warning: this ship's position is months out of date.

Length 104 m; draft 7.5 m.

Type: Ship. MMSI: 253418000.

Date/timePositionNaut miles runAvg speedWind from/ knotsBaromVisibWave heightAir tempDewpointWater temp
2018-Feb-21 07:30N 51°53' E 004°18'0 0.0
2018-Feb-21 06:55N 51°53' E 004°18'0 0.0
2018-Feb-21 06:25N 51°53' E 004°18'0 0.0
2018-Feb-21 05:55N 51°53' E 004°18'0 0.0
2018-Feb-21 04:52N 51°53' E 004°18'0 0.0
2018-Feb-21 04:28N 51°53' E 004°18'0 0.0
2018-Feb-21 03:58N 51°53' E 004°18'0 0.0
2018-Feb-21 03:28N 51°53' E 004°18'0 0.0
2018-Feb-21 02:58N 51°53' E 004°18'0 0.2
2018-Feb-21 02:30N 51°53' E 004°18'0 0.7
2018-Feb-21 01:59N 51°53' E 004°18'0 0.0
2018-Feb-21 01:26N 51°53' E 004°18'0 0.0
2018-Feb-21 00:44N 51°53' E 004°18'0 0.0
2018-Feb-21 00:29N 51°53' E 004°18'0 0.0
2018-Feb-20 23:59N 51°53' E 004°18'0 0.0
2018-Feb-20 23:29N 51°53' E 004°18'0 0.0
2018-Feb-20 22:53N 51°53' E 004°18'0 0.0
2018-Feb-20 22:29N 51°53' E 004°18'0 0.0
2018-Feb-20 21:35N 51°53' E 004°18'0 0.0
2018-Feb-20 21:20N 51°53' E 004°18'0 0.0
2018-Feb-20 20:53N 51°53' E 004°18'0 0.0
2018-Feb-20 20:23N 51°53' E 004°18'0 0.0
2018-Feb-20 19:59N 51°53' E 004°18'0 0.0
2018-Feb-20 19:05N 51°53' E 004°18'0 0.0
2018-Feb-20 18:50N 51°53' E 004°18'0 0.0
2018-Feb-20 18:17N 51°53' E 004°18'0 0.0
2018-Feb-20 17:59N 51°53' E 004°18'0 0.0
2018-Feb-20 17:29N 51°53' E 004°18'0 0.0
2018-Feb-20 16:59N 51°53' E 004°18'0 0.0
2018-Feb-20 16:29N 51°53' E 004°18'0 0.0
2018-Feb-20 15:53N 51°53' E 004°18'0 0.0
2018-Feb-20 15:30N 51°53' E 004°18'0 0.9
2018-Feb-20 15:00N 51°53' E 004°18'2 3.8
2018-Feb-20 14:30N 51°54' E 004°16'510.9
2018-Feb-20 14:00N 51°58' E 004°09'611.7
2018-Feb-20 13:30N 51°60' E 004°00'612.7
2018-Feb-20 13:00N 52°01' E 003°50'4 7.5
2018-Feb-20 12:30N 52°04' E 003°47'611.9
2018-Feb-20 12:00N 52°10' E 003°46'612.6
2018-Feb-20 11:30N 52°17' E 003°46'712.9
2018-Feb-20 10:59N 52°23' E 003°49'612.9
2018-Feb-20 10:30N 52°29' E 003°51'713.0
2018-Feb-20 10:00N 52°36' E 003°53'1013.3
2018-Feb-20 09:16N 52°45' E 003°56'16912.1
2018-Feb-19 19:13N 54°01' E 008°10'411.3
2018-Feb-19 18:53N 54°00' E 008°17'616.3
2018-Feb-19 18:30N 53°59' E 008°27'816.3
2018-Feb-19 18:01N 53°56' E 008°40'815.1
2018-Feb-19 17:30N 53°50' E 008°49'714.2
2018-Feb-19 17:00N 53°51' E 009°01'510.7
2018-Feb-19 16:30N 53°54' E 009°09'0 0.0
2018-Feb-19 16:01N 53°54' E 009°09'2 3.0
2018-Feb-19 15:30N 53°55' E 009°11'4 8.7
2018-Feb-19 15:00N 53°58' E 009°15'4 8.0
2018-Feb-19 14:30N 54°02' E 009°18'1 2.9
2018-Feb-19 14:00N 54°03' E 009°18'4 7.0
2018-Feb-19 13:30N 54°06' E 009°20'3 6.6
2018-Feb-19 13:01N 54°09' E 009°22'4 7.7
2018-Feb-19 12:31N 54°11' E 009°28'4 7.0
2018-Feb-19 12:01N 54°12' E 009°34'3 6.9
2018-Feb-19 11:30N 54°15' E 009°37'4 7.1
2018-Feb-19 11:01N 54°18' E 009°41'4 8.4
2018-Feb-19 10:31N 54°21' E 009°46'4 7.8
2018-Feb-19 09:57N 54°21' E 009°53'3 3.8
2018-Feb-19 09:05N 54°21' E 009°59'18 5.0
2018-Feb-19 05:26N 54°32' E 010°24'4 9.5
2018-Feb-19 05:01N 54°33' E 010°31'611.0
2018-Feb-19 04:31N 54°35' E 010°40'510.9
2018-Feb-19 04:01N 54°35' E 010°49'510.8
2018-Feb-19 03:31N 54°36' E 010°58'611.5
2018-Feb-19 03:00N 54°36' E 011°08'611.6
2018-Feb-19 02:31N 54°34' E 011°18'611.3
2018-Feb-19 02:01N 54°32' E 011°27'611.2
2018-Feb-19 01:29N 54°29' E 011°35'510.8
2018-Feb-19 01:00N 54°27' E 011°44'510.8
2018-Feb-19 00:31N 54°26' E 011°53'510.5
2018-Feb-19 00:01N 54°22' E 011°58'13 7.6
2018-Feb-18 22:14N 54°09' E 012°08'0 0.0
2018-Feb-18 21:59N 54°09' E 012°08'0 0.0
2018-Feb-18 21:29N 54°09' E 012°08'0 0.0
2018-Feb-18 20:44N 54°09' E 012°08'0 0.0
2018-Feb-18 20:29N 54°09' E 012°08'0 0.0
2018-Feb-18 19:59N 54°09' E 012°08'0 0.0
2018-Feb-18 18:26N 54°09' E 012°08'0 0.0
2018-Feb-18 17:29N 54°09' E 012°08'0 0.0
2018-Feb-18 15:59N 54°09' E 012°08'0 0.0
2018-Feb-18 15:29N 54°09' E 012°08'0 0.0
2018-Feb-18 14:59N 54°09' E 012°08'0 0.0
2018-Feb-18 13:26N 54°09' E 012°08'0 0.0
2018-Feb-18 12:50N 54°09' E 012°08'0 0.0
2018-Feb-18 12:29N 54°09' E 012°08'0 0.0
2018-Feb-18 10:59N 54°09' E 012°08'0 0.0
2018-Feb-18 10:26N 54°09' E 012°08'0 0.0
2018-Feb-18 09:59N 54°09' E 012°08'0 0.0
2018-Feb-18 08:41N 54°09' E 012°08'0 0.0
2018-Feb-18 08:29N 54°09' E 012°08'0 0.0
2018-Feb-18 07:59N 54°09' E 012°08'0 0.0
2018-Feb-18 06:14N 54°09' E 012°08'0 0.0
2018-Feb-18 05:59N 54°09' E 012°08'0 0.0
2018-Feb-18 05:29N 54°09' E 012°08'0 0.0
2018-Feb-18 03:44N 54°09' E 012°08'0 0.0
2018-Feb-18 03:26N 54°09' E 012°08'0 0.0
2018-Feb-18 01:56N 54°09' E 012°08'0 0.0
2018-Feb-18 01:29N 54°09' E 012°08'0 0.0
2018-Feb-18 00:59N 54°09' E 012°08'0 0.0
2018-Feb-18 00:23N 54°09' E 012°08'0 0.0
2018-Feb-17 22:59N 54°09' E 012°08'0 0.0
2018-Feb-17 22:29N 54°09' E 012°08'0 0.0
2018-Feb-17 21:56N 54°09' E 012°08'0 0.0
2018-Feb-17 20:35N 54°09' E 012°08'0 0.0
2018-Feb-17 20:26N 54°09' E 012°08'0 0.0
2018-Feb-17 18:50N 54°09' E 012°08'0 0.0
2018-Feb-17 18:29N 54°09' E 012°08'0 0.0
2018-Feb-17 17:59N 54°09' E 012°08'0 0.0
2018-Feb-17 17:23N 54°09' E 012°08'0 0.0
2018-Feb-17 16:08N 54°09' E 012°08'0 0.0
2018-Feb-17 15:59N 54°09' E 012°08'0 0.0
2018-Feb-17 15:29N 54°09' E 012°08'0 0.0
2018-Feb-17 14:30N 54°09' E 012°08'2 2.3
2018-Feb-17 13:45N 54°11' E 012°06'2 8.5
2018-Feb-17 13:30N 54°12' E 012°04'4 8.6
2018-Feb-17 13:00N 54°16' E 012°01'611.6
2018-Feb-17 12:31N 54°22' E 011°57'510.8
2018-Feb-17 12:00N 54°26' E 012°03'6912.8
2018-Feb-17 06:36N 55°01' E 013°47'1313.0
2018-Feb-17 05:38N 55°06' E 014°07'413.6
2018-Feb-17 05:21N 55°09' E 014°11'513.7
2018-Feb-17 05:00N 55°12' E 014°16'713.8
2018-Feb-17 04:30N 55°18' E 014°24'713.7
2018-Feb-17 04:00N 55°23' E 014°32'813.1
2018-Feb-17 03:25N 55°27' E 014°43'513.2
2018-Feb-17 03:00N 55°28' E 014°52'713.1
2018-Feb-17 02:30N 55°30' E 015°04'613.0
2018-Feb-17 02:00N 55°31' E 015°15'612.8
2018-Feb-17 01:30N 55°32' E 015°26'612.7
2018-Feb-17 01:00N 55°33' E 015°37'612.9
2018-Feb-17 00:30N 55°35' E 015°48'612.8
2018-Feb-17 00:00N 55°36' E 015°59'613.0
2018-Feb-16 23:30N 55°37' E 016°11'713.2
2018-Feb-16 23:00N 55°38' E 016°22'712.9
2018-Feb-16 22:30N 55°40' E 016°33'  
2018-Feb-14 14:50N 55°30' E 016°19'413.2
2018-Feb-14 14:30N 55°30' E 016°11'612.9
2018-Feb-14 14:00N 55°30' E 016°00'612.7
2018-Feb-14 13:30N 55°29' E 015°49'612.8
2018-Feb-14 13:00N 55°29' E 015°38'612.8
2018-Feb-14 12:30N 55°28' E 015°26'612.8
2018-Feb-14 12:00N 55°28' E 015°15'612.8
2018-Feb-14 11:30N 55°27' E 015°04'612.8
2018-Feb-14 11:00N 55°27' E 014°53'712.8
2018-Feb-14 10:30N 55°25' E 014°42'713.0
2018-Feb-14 09:59N 55°20' E 014°33'613.1
2018-Feb-14 09:30N 55°16' E 014°26'713.6
2018-Feb-14 09:00N 55°10' E 014°19'713.6
2018-Feb-14 08:28N 55°04' E 014°11'712.9
2018-Feb-14 07:56N 54°60' E 014°02'612.6
2018-Feb-14 07:29N 54°58' E 013°53'1012.9
2018-Feb-14 06:44N 54°55' E 013°37'413.2
2018-Feb-14 06:25N 54°54' E 013°30'612.9
2018-Feb-14 05:56N 54°52' E 013°20'3112.7
2018-Feb-14 03:28N 54°39' E 012°30'612.8
2018-Feb-14 03:00N 54°36' E 012°21'612.3
2018-Feb-14 02:30N 54°31' E 012°16'1111.1
2018-Feb-14 01:32N 54°24' E 012°01'012.8
2018-Feb-14 01:30N 54°24' E 012°00'613.3
2018-Feb-14 01:00N 54°25' E 011°49'712.8
2018-Feb-14 00:29N 54°27' E 011°38'613.0
2018-Feb-14 00:00N 54°30' E 011°29'612.6
2018-Feb-13 23:30N 54°33' E 011°19'612.5
2018-Feb-13 23:00N 54°35' E 011°09'612.6
2018-Feb-13 22:30N 54°35' E 010°58'612.4
2018-Feb-13 22:00N 54°34' E 010°48'612.3
2018-Feb-13 21:30N 54°33' E 010°37'612.6
2018-Feb-13 21:00N 54°31' E 010°27'612.0
2018-Feb-13 20:29N 54°29' E 010°17'17 2.6
2018-Feb-13 14:07N 54°22' E 009°51'1 8.3
2018-Feb-13 14:00N 54°22' E 009°49'4 7.3
2018-Feb-13 13:30N 54°20' E 009°44'3 6.9
2018-Feb-13 13:01N 54°17' E 009°40'3 5.2
2018-Feb-13 12:30N 54°15' E 009°37'2 4.6
2018-Feb-13 12:00N 54°13' E 009°36'4 7.1
2018-Feb-13 11:30N 54°11' E 009°31'4 8.0
2018-Feb-13 11:00N 54°10' E 009°24'4 7.3
2018-Feb-13 10:31N 54°07' E 009°20'4 8.7
2018-Feb-13 10:00N 54°03' E 009°18'4 7.5
2018-Feb-13 09:30N 53°59' E 009°17'4 8.6
2018-Feb-13 09:00N 53°56' E 009°13'3 6.6
2018-Feb-13 08:30N 53°54' E 009°09'0 0.0
2018-Feb-13 08:00N 53°54' E 009°09'2 4.2
2018-Feb-13 07:30N 53°53' E 009°05'510.4
2018-Feb-13 07:00N 53°51' E 008°57'611.8
2018-Feb-13 06:30N 53°50' E 008°47'510.8
2018-Feb-13 06:00N 53°54' E 008°41'611.1
2018-Feb-13 05:29N 53°58' E 008°33'611.7
2018-Feb-13 05:00N 53°59' E 008°24'611.0
2018-Feb-13 04:26N 53°60' E 008°13'10011.8
2018-Feb-12 19:59N 53°35' E 005°30'612.0
2018-Feb-12 19:29N 53°33' E 005°21'611.8
2018-Feb-12 19:00N 53°31' E 005°12'611.8
2018-Feb-12 18:30N 53°29' E 005°03'611.9
2018-Feb-12 18:00N 53°26' E 004°54'612.0
2018-Feb-12 17:28N 53°24' E 004°44'1711.7
2018-Feb-12 16:03N 53°09' E 004°31'111.8
2018-Feb-12 15:58N 53°08' E 004°30'611.9
2018-Feb-12 15:30N 53°04' E 004°25'612.3
2018-Feb-12 15:00N 52°58' E 004°20'612.5
2018-Feb-12 14:29N 52°52' E 004°15'2512.4
2018-Feb-12 12:25N 52°33' E 003°48'712.2
2018-Feb-12 11:50N 52°27' E 003°42'612.1
2018-Feb-12 11:22N 52°22' E 003°38'511.7
2018-Feb-12 10:55N 52°17' E 003°35'3610.2
2018-Feb-12 07:25N 51°43' E 003°15'5 7.3
2018-Feb-12 06:47N 51°39' E 003°19'310.4
2018-Feb-12 06:29N 51°37' E 003°22'510.3
2018-Feb-12 06:00N 51°32' E 003°25'610.7
2018-Feb-12 05:29N 51°28' E 003°31'4 8.3
2018-Feb-12 05:00N 51°26' E 003°37'510.2
2018-Feb-12 04:30N 51°23' E 003°43'713.3
2018-Feb-12 04:00N 51°21' E 003°54'713.1
2018-Feb-12 03:30N 51°26' E 004°01'612.0
2018-Feb-12 03:00N 51°23' E 004°09'5 9.8
2018-Feb-12 02:30N 51°21' E 004°16'4 7.8
2018-Feb-12 02:00N 51°17' E 004°15'0 0.3
2018-Feb-12 01:30N 51°17' E 004°15'  

Dump ship's entire track history